Time;durP1;ratioP1;P1;durP2;ratioP2;P2;SDS_P1;SDS_P2;PMS_P1;PMS_P2;Temp;Humidity;BMP_temperature;BMP_pressure;BME280_temperature;BME280_humidity;BME280_pressure;Samples;Min_cycle;Max_cycle;Signal;HPM_P1;HPM_P2
2021/12/08 00:01:55;;;;;;;9.43;3.47;;;2.10;99.90;;;;;;5024661;28;20060;-72
2021/12/08 00:04:40;;;;;;;11.25;3.72;;;2.10;99.90;;;;;;5027953;28;20052;-73
2021/12/08 00:07:25;;;;;;;5.88;3.45;;;2.20;99.90;;;;;;5026433;28;20122;-72
2021/12/08 00:13:16;;;;;;;15.65;3.03;;;2.20;99.90;;;;;;5047959;28;20060;-72
2021/12/08 00:16:08;;;;;;;6.78;3.78;;;2.20;99.90;;;;;;5032259;28;20044;-72
2021/12/08 00:18:57;;;;;;;9.18;3.70;;;2.20;99.90;;;;;;5026013;28;20275;-72
2021/12/08 00:21:42;;;;;;;5.53;3.15;;;2.20;99.90;;;;;;5027345;28;20470;-72
2021/12/08 00:24:28;;;;;;;;;;;2.20;99.90;;;;;;5033203;28;20053;-72
2021/12/08 00:27:13;;;;;;;5.35;3.88;;;2.20;99.90;;;;;;5038916;28;20695;-72
2021/12/08 00:29:59;;;;;;;13.13;5.35;;;2.30;99.90;;;;;;5030009;28;20406;-72
2021/12/08 00:32:45;;;;;;;;;;;2.30;99.90;;;;;;4999900;28;20687;-71
2021/12/08 00:35:32;;;;;;;;;;;2.30;99.90;;;;;;5012386;28;19947;-71
2021/12/08 00:38:18;;;;;;;5.10;3.15;;;2.30;99.90;;;;;;5011609;28;20421;-71
2021/12/08 00:41:03;;;;;;;8.07;3.58;;;2.30;99.90;;;;;;5026567;28;20056;-71
2021/12/08 00:43:48;;;;;;;5.70;3.65;;;2.30;99.90;;;;;;5027772;28;20138;-71
2021/12/08 00:46:34;;;;;;;;;;;2.40;99.90;;;;;;5026290;28;20203;-73
2021/12/08 00:49:20;;;;;;;10.57;3.75;;;2.40;99.90;;;;;;5027261;28;19944;-74
2021/12/08 00:52:06;;;;;;;11.07;4.07;;;2.40;99.90;;;;;;5014736;28;20114;-71
2021/12/08 00:54:51;;;;;;;5.45;3.05;;;2.40;99.90;;;;;;5035608;28;20060;-71
2021/12/08 00:57:37;;;;;;;10.95;4.00;;;2.40;99.90;;;;;;5022298;28;20418;-71
2021/12/08 01:00:28;;;;;;;7.10;3.75;;;2.50;99.90;;;;;;5022378;28;20108;-71
2021/12/08 01:03:16;;;;;;;5.07;3.33;;;2.50;99.90;;;;;;5011974;28;20467;-71
2021/12/08 01:06:02;;;;;;;7.45;2.83;;;2.50;99.90;;;;;;5025931;28;20067;-71
2021/12/08 01:08:47;;;;;;;3.67;3.38;;;2.40;99.90;;;;;;5005646;28;20168;-73
2021/12/08 01:11:33;;;;;;;5.72;3.35;;;2.40;99.90;;;;;;5026772;28;20051;-71
2021/12/08 01:14:18;;;;;;;7.05;4.05;;;2.40;99.90;;;;;;5025677;28;20179;-71
2021/12/08 01:17:04;;;;;;;;;;;2.40;99.90;;;;;;5026330;28;20056;-71
2021/12/08 01:19:49;;;;;;;3.33;3.00;;;2.50;99.90;;;;;;5022409;28;19932;-71
2021/12/08 01:22:35;;;;;;;7.78;3.20;;;2.50;99.90;;;;;;5026633;28;20554;-71
2021/12/08 01:25:20;;;;;;;4.68;3.58;;;2.50;99.90;;;;;;5020210;28;20079;-71
2021/12/08 01:28:05;;;;;;;5.75;3.38;;;2.50;99.90;;;;;;5041559;28;20060;-71
2021/12/08 01:30:53;;;;;;;5.63;4.70;;;2.50;99.90;;;;;;5025175;28;20065;-71
2021/12/08 01:33:38;;;;;;;4.50;3.05;;;2.50;99.90;;;;;;5038422;28;20434;-71
2021/12/08 01:36:24;;;;;;;9.02;3.30;;;2.40;99.90;;;;;;5016757;28;20523;-72
2021/12/08 01:39:10;;;;;;;6.22;2.92;;;2.40;99.90;;;;;;5025209;28;20195;-71
2021/12/08 01:41:55;;;;;;;4.13;2.75;;;2.40;99.90;;;;;;5026224;28;20072;-71
2021/12/08 01:47:44;;;;;;;6.10;3.15;;;2.30;99.90;;;;;;5024378;28;20053;-71
2021/12/08 01:50:30;;;;;;;8.52;3.58;;;2.30;99.90;;;;;;5010370;28;20052;-71
2021/12/08 01:53:17;;;;;;;5.18;3.33;;;2.30;99.90;;;;;;5030797;28;20098;-71
2021/12/08 01:56:03;;;;;;;4.47;3.25;;;2.40;99.90;;;;;;5018647;28;20114;-71
2021/12/08 01:58:49;;;;;;;4.45;3.22;;;2.40;99.90;;;;;;5015436;28;20142;-71
2021/12/08 02:01:37;;;;;;;8.25;4.80;;;2.40;99.90;;;;;;5010107;28;20160;-71
2021/12/08 02:04:23;;;;;;;4.95;3.38;;;2.50;99.90;;;;;;5023646;28;20578;-72
2021/12/08 02:07:08;;;;;;;8.25;3.25;;;2.50;99.90;;;;;;5026437;28;20056;-73
2021/12/08 02:09:53;;;;;;;;;;;2.50;99.90;;;;;;4991990;28;20538;-73
2021/12/08 02:12:41;;;;;;;4.88;3.40;;;2.50;99.90;;;;;;5009804;28;20366;-73
2021/12/08 02:15:26;;;;;;;6.18;3.58;;;2.60;99.90;;;;;;5009279;28;20057;-72
2021/12/08 02:18:14;;;;;;;8.23;3.25;;;2.60;99.90;;;;;;5028771;28;20048;-73
2021/12/08 02:21:04;;;;;;;5.65;2.80;;;2.60;99.90;;;;;;5045095;28;20517;-73
2021/12/08 02:23:50;;;;;;;5.50;3.20;;;2.60;99.90;;;;;;5040327;28;20123;-73
2021/12/08 02:26:37;;;;;;;5.63;2.70;;;2.50;99.90;;;;;;5002472;28;20052;-73
2021/12/08 02:29:35;;;;;;;5.10;3.13;;;2.50;99.90;;;;;;5024974;28;20052;-73
2021/12/08 02:50:14;;;;;;;3.33;2.85;;;2.50;99.90;;;;;;5010698;28;20052;-72
2021/12/08 02:55:36;;;;;;;3.45;2.40;;;2.40;99.90;;;;;;5046419;22;20136;-75
2021/12/08 02:58:22;;;;;;;4.95;2.60;;;2.30;99.90;;;;;;5004968;28;20187;-73
2021/12/08 03:01:11;;;;;;;;;;;2.20;99.90;;;;;;5011919;28;20141;-73
2021/12/08 03:03:56;;;;;;;2.92;1.92;;;2.10;99.90;;;;;;5019579;28;19935;-73
2021/12/08 03:06:42;;;;;;;8.18;2.67;;;2.00;99.90;;;;;;5009254;28;20168;-74
2021/12/08 03:09:27;;;;;;;3.80;2.50;;;2.00;99.90;;;;;;4991058;28;20048;-74
2021/12/08 03:12:13;;;;;;;7.20;3.10;;;1.90;99.90;;;;;;4992828;28;20131;-74
2021/12/08 03:14:59;;;;;;;8.77;2.47;;;1.90;99.90;;;;;;5008110;28;20053;-73
2021/12/08 03:17:44;;;;;;;;;;;1.90;99.90;;;;;;4994381;28;20192;-74
2021/12/08 03:20:41;;;;;;;3.38;2.25;;;1.90;99.90;;;;;;5007452;28;20355;-73
2021/12/08 03:23:33;;;;;;;5.80;2.40;;;1.90;99.90;;;;;;5008965;28;20438;-74
2021/12/08 03:26:26;;;;;;;5.13;2.45;;;1.90;99.90;;;;;;5008116;28;20044;-73
2021/12/08 03:29:23;;;;;;;5.63;4.72;;;2.00;99.90;;;;;;5009230;28;20486;-74
2021/12/08 03:32:14;;;;;;;4.38;3.15;;;2.00;99.90;;;;;;5006967;28;20064;-73
2021/12/08 03:34:59;;;;;;;7.53;3.58;;;2.00;99.90;;;;;;5008437;28;20060;-73
2021/12/08 03:37:46;;;;;;;6.93;4.18;;;2.00;99.90;;;;;;5007029;28;20514;-73
2021/12/08 03:40:33;;;;;;;10.02;3.83;;;2.00;99.90;;;;;;5020752;28;20231;-73
2021/12/08 03:43:18;;;;;;;4.80;3.38;;;2.00;99.90;;;;;;5008350;28;20052;-73
2021/12/08 03:46:04;;;;;;;6.45;3.30;;;2.00;99.90;;;;;;5006772;28;20138;-72
2021/12/08 03:48:50;;;;;;;4.90;2.92;;;2.00;99.90;;;;;;5007244;28;20130;-73
2021/12/08 03:51:37;;;;;;;4.78;3.65;;;2.00;99.90;;;;;;5008475;28;20259;-73
2021/12/08 03:54:22;;;;;;;6.72;3.72;;;2.00;99.90;;;;;;5011668;28;20049;-73
2021/12/08 03:57:07;;;;;;;;;;;1.90;99.90;;;;;;5017735;28;20060;-73
2021/12/08 03:59:52;;;;;;;5.05;3.00;;;1.90;99.90;;;;;;4993633;28;19932;-73
2021/12/08 04:02:38;;;;;;;;;;;1.90;99.90;;;;;;4993971;28;20375;-73
2021/12/08 04:05:39;;;;;;;7.07;3.30;;;1.90;99.90;;;;;;5005937;28;20011;-73
2021/12/08 04:08:32;;;;;;;4.57;2.83;;;1.90;99.90;;;;;;5006198;28;20659;-74
2021/12/08 04:11:18;;;;;;;4.82;3.40;;;1.90;99.90;;;;;;5006784;28;20127;-74
2021/12/08 04:14:05;;;;;;;;;;;1.90;99.90;;;;;;4987104;28;20057;-73
2021/12/08 04:17:01;;;;;;;3.75;2.80;;;1.90;99.90;;;;;;4986255;28;20358;-76
2021/12/08 04:19:47;;;;;;;3.05;2.72;;;1.90;99.90;;;;;;4998277;28;20064;-75
2021/12/08 04:22:37;;;;;;;3.95;2.72;;;1.90;99.90;;;;;;5007130;28;20073;-76
2021/12/08 04:25:28;;;;;;;5.03;3.10;;;1.90;99.90;;;;;;5010040;28;20059;-76
2021/12/08 04:28:19;;;;;;;7.28;2.90;;;1.90;99.90;;;;;;5020304;28;20529;-76
2021/12/08 04:31:28;;;;;;;6.95;3.45;;;1.90;99.90;;;;;;4993737;28;20128;-73
2021/12/08 04:34:19;;;;;;;4.60;2.53;;;1.90;99.90;;;;;;5007314;28;20061;-74
2021/12/08 04:37:15;;;;;;;3.72;3.13;;;1.90;99.90;;;;;;5001475;28;20495;-76
2021/12/08 04:40:37;;;;;;;4.90;2.40;;;1.90;99.90;;;;;;4986435;28;20057;-76
2021/12/08 04:43:30;;;;;;;3.95;2.25;;;1.90;99.90;;;;;;5006370;28;20618;-76
2021/12/08 05:07:49;;;;;;;4.05;3.25;;;2.00;99.90;;;;;;5024783;28;20060;-75
2021/12/08 05:10:36;;;;;;;3.78;2.38;;;2.00;99.90;;;;;;5010144;28;20159;-75
2021/12/08 05:13:22;;;;;;;3.67;2.97;;;2.00;99.90;;;;;;5025419;28;20416;-76
2021/12/08 05:16:09;;;;;;;5.68;2.95;;;2.00;99.90;;;;;;5005311;28;20080;-76
2021/12/08 05:18:57;;;;;;;3.47;2.83;;;2.00;99.90;;;;;;5005681;28;20139;-75
2021/12/08 05:21:51;;;;;;;3.58;3.08;;;2.00;99.90;;;;;;5005978;28;20072;-75
2021/12/08 05:24:40;;;;;;;3.47;2.50;;;2.00;99.90;;;;;;5020366;28;20107;-75
2021/12/08 05:27:40;;;;;;;5.75;2.33;;;2.10;99.90;;;;;;5016903;28;20199;-75
2021/12/08 05:30:31;;;;;;;3.92;2.55;;;2.00;99.90;;;;;;5009421;28;20079;-75
2021/12/08 05:33:18;;;;;;;3.08;2.75;;;2.10;99.90;;;;;;5010004;28;20127;-75
2021/12/08 05:36:04;;;;;;;5.53;2.80;;;2.10;99.90;;;;;;5010205;28;20052;-74
2021/12/08 05:38:52;;;;;;;2.90;2.10;;;2.10;99.90;;;;;;5023868;28;20053;-75
2021/12/08 05:41:41;;;;;;;3.75;2.97;;;2.10;99.90;;;;;;5009288;28;20057;-75
2021/12/08 05:44:27;;;;;;;8.80;2.90;;;2.10;99.90;;;;;;5025396;28;20159;-75
2021/12/08 05:47:18;;;;;;;4.57;2.92;;;2.10;99.90;;;;;;5023489;28;20044;-74
2021/12/08 05:50:06;;;;;;;4.72;3.08;;;2.10;99.90;;;;;;5009566;28;20064;-74
2021/12/08 05:52:53;;;;;;;6.45;3.45;;;2.10;99.90;;;;;;5010427;28;20071;-74
2021/12/08 05:55:43;;;;;;;3.65;2.90;;;2.10;99.90;;;;;;5018338;28;20442;-75
2021/12/08 05:58:29;;;;;;;6.32;2.95;;;2.10;99.90;;;;;;5008421;28;20071;-75
2021/12/08 06:01:33;;;;;;;4.18;3.47;;;2.10;99.90;;;;;;5009116;28;20245;-75
2021/12/08 06:04:21;;;;;;;4.07;3.05;;;2.10;99.90;;;;;;5025558;28;20119;-75
2021/12/08 06:07:08;;;;;;;7.13;3.78;;;2.10;99.90;;;;;;5023944;28;20057;-75
2021/12/08 06:09:57;;;;;;;4.40;3.40;;;2.10;99.90;;;;;;5010032;28;20208;-75
2021/12/08 06:12:43;;;;;;;7.85;4.35;;;2.20;99.90;;;;;;5009581;28;20087;-75
2021/12/08 06:15:29;;;;;;;4.18;3.78;;;2.10;99.90;;;;;;5009136;28;20152;-75
2021/12/08 06:18:15;;;;;;;;;;;2.10;99.90;;;;;;5002092;28;20416;-73
2021/12/08 06:21:01;;;;;;;4.85;3.78;;;2.20;99.90;;;;;;5022283;28;19947;-74
2021/12/08 06:23:46;;;;;;;5.97;4.50;;;2.20;99.90;;;;;;5014037;28;20615;-74
2021/12/08 06:26:33;;;;;;;4.22;3.22;;;2.20;99.90;;;;;;5022248;28;20147;-74
2021/12/08 06:29:19;;;;;;;6.38;4.60;;;2.20;99.90;;;;;;5021991;28;20056;-73
2021/12/08 06:32:07;;;;;;;8.18;5.03;;;2.20;99.90;;;;;;5008944;28;20059;-73
2021/12/08 06:34:57;;;;;;;7.35;5.20;;;2.20;99.90;;;;;;5024868;28;20060;-73
2021/12/08 06:37:44;;;;;;;9.85;5.03;;;2.20;99.90;;;;;;5018969;28;20111;-73
2021/12/08 06:40:40;;;;;;;11.02;5.43;;;2.20;99.90;;;;;;5008366;28;20064;-73
2021/12/08 06:43:31;;;;;;;9.40;5.78;;;2.20;99.90;;;;;;5024632;28;20064;-76
2021/12/08 06:46:20;;;;;;;10.48;4.72;;;2.30;99.90;;;;;;5023929;28;20053;-75
2021/12/08 06:49:08;;;;;;;13.60;6.20;;;2.30;99.90;;;;;;5022689;28;20072;-73
2021/12/08 06:51:58;;;;;;;5.57;4.45;;;2.30;99.90;;;;;;4994661;28;20115;-74
2021/12/08 06:54:51;;;;;;;16.90;5.97;;;2.30;99.90;;;;;;5027021;28;20060;-74
2021/12/08 06:57:41;;;;;;;6.45;4.18;;;2.30;99.90;;;;;;5015507;28;20486;-73
2021/12/08 07:01:12;;;;;;;14.57;5.53;;;2.30;99.90;;;;;;5015548;28;20084;-76
2021/12/08 07:07:00;;;;;;;7.47;5.03;;;2.30;99.90;;;;;;5014834;28;20112;-76
2021/12/08 07:09:58;;;;;;;6.50;5.38;;;2.30;99.90;;;;;;5003222;28;20586;-76
2021/12/08 07:12:47;;;;;;;9.75;7.32;;;2.30;99.90;;;;;;4989340;28;20511;-76
2021/12/08 07:15:39;;;;;;;16.08;8.88;;;2.30;99.90;;;;;;5019786;28;20235;-76
2021/12/08 07:18:37;;;;;;;14.07;8.55;;;2.30;99.90;;;;;;5021376;28;20072;-76
2021/12/08 07:21:28;;;;;;;15.90;7.72;;;2.30;99.90;;;;;;5003957;28;20220;-73
2021/12/08 07:24:19;;;;;;;17.52;8.35;;;2.30;99.90;;;;;;5034631;28;20052;-74
2021/12/08 07:27:12;;;;;;;14.55;9.05;;;2.20;99.90;;;;;;5018487;28;20052;-73
2021/12/08 07:30:01;;;;;;;14.68;10.57;;;2.20;99.90;;;;;;5005451;28;20060;-76
2021/12/08 07:32:47;;;;;;;18.70;11.00;;;2.20;99.90;;;;;;5022469;28;20199;-76
2021/12/08 07:35:38;;;;;;;19.40;11.43;;;2.20;99.90;;;;;;5003505;28;20106;-76
2021/12/08 07:38:26;;;;;;;13.63;8.50;;;2.30;99.90;;;;;;5001497;28;20053;-74
2021/12/08 07:41:30;;;;;;;14.65;8.90;;;2.30;99.90;;;;;;5022209;28;20107;-74
2021/12/08 07:44:17;;;;;;;17.65;8.73;;;2.30;99.90;;;;;;5024766;28;20142;-73
2021/12/08 07:47:11;;;;;;;11.00;7.65;;;2.30;99.90;;;;;;5024354;28;20521;-75
2021/12/08 07:50:03;;;;;;;13.88;8.68;;;2.40;99.90;;;;;;5008262;28;20072;-76
2021/12/08 07:52:53;;;;;;;16.27;10.43;;;2.40;99.90;;;;;;5012064;28;20552;-82
2021/12/08 07:55:43;;;;;;;19.83;11.20;;;2.40;99.90;;;;;;5028485;28;20047;-83
2021/12/08 07:58:29;;;;;;;16.20;8.38;;;2.40;99.90;;;;;;5022954;28;20438;-82
2021/12/08 08:01:19;;;;;;;18.73;8.55;;;2.30;99.90;;;;;;5002782;28;20125;-82
2021/12/08 08:04:09;;;;;;;19.55;12.82;;;2.30;99.90;;;;;;5017189;28;20416;-83
2021/12/08 08:06:57;;;;;;;16.73;11.32;;;2.30;99.90;;;;;;5027884;28;20135;-82
2021/12/08 08:09:46;;;;;;;19.60;12.40;;;2.40;99.90;;;;;;5026091;28;20137;-82
2021/12/08 08:12:34;;;;;;;19.23;10.90;;;2.40;99.90;;;;;;5016042;28;20060;-84
2021/12/08 08:15:22;;;;;;;20.35;12.77;;;2.40;99.90;;;;;;5017169;28;20428;-84
2021/12/08 08:18:10;;;;;;;14.68;10.43;;;2.40;99.90;;;;;;5017503;28;20067;-81
2021/12/08 08:21:00;;;;;;;14.93;10.68;;;2.40;99.90;;;;;;5002572;28;20098;-83
2021/12/08 08:23:46;;;;;;;13.88;10.30;;;2.40;99.90;;;;;;5018506;28;20072;-82
2021/12/08 08:26:33;;;;;;;18.02;11.57;;;2.40;99.90;;;;;;5007199;28;20119;-82
2021/12/08 08:29:18;;;;;;;22.30;10.48;;;2.40;99.90;;;;;;5026313;28;20056;-81
2021/12/08 08:32:11;;;;;;;13.57;10.00;;;2.40;99.90;;;;;;5016648;28;20060;-81
2021/12/08 08:35:04;;;;;;;23.30;10.98;;;2.40;99.90;;;;;;5017224;28;20061;-80
2021/12/08 08:37:51;;;;;;;21.67;10.40;;;2.40;99.90;;;;;;5015900;28;20491;-81
2021/12/08 08:40:44;;;;;;;17.95;10.85;;;2.40;99.90;;;;;;5018006;28;20538;-82
2021/12/08 08:43:30;;;;;;;21.58;13.80;;;2.50;99.90;;;;;;5018559;28;20060;-81
2021/12/08 08:46:26;;;;;;;22.80;13.18;;;2.50;99.90;;;;;;5016531;28;20068;-83
2021/12/08 08:49:18;;;;;;;19.50;10.57;;;2.50;99.90;;;;;;5004919;28;20075;-84
2021/12/08 08:52:19;;;;;;;16.33;12.45;;;2.40;99.90;;;;;;5040030;28;20068;-82
2021/12/08 08:55:30;;;;;;;16.75;11.93;;;2.50;99.90;;;;;;5051389;22;20064;-69
2021/12/08 08:58:18;;;;;;;18.90;12.75;;;2.50;99.90;;;;;;5018373;28;20056;-71
2021/12/08 09:01:15;;;;;;;19.67;11.82;;;2.60;99.90;;;;;;5023138;28;20404;-70
2021/12/08 09:04:14;;;;;;;23.25;12.18;;;2.60;99.90;;;;;;5039881;28;20052;-70
2021/12/08 09:07:05;;;;;;;26.73;15.85;;;2.60;99.90;;;;;;5005485;28;20068;-71
2021/12/08 09:09:55;;;;;;;19.17;12.75;;;2.60;99.90;;;;;;5002655;28;20056;-71
2021/12/08 09:12:48;;;;;;;24.38;14.25;;;2.70;99.90;;;;;;5017282;28;20160;-72
2021/12/08 09:15:42;;;;;;;17.67;12.27;;;2.70;99.90;;;;;;5019651;28;20064;-70
2021/12/08 09:18:48;;;;;;;17.25;12.00;;;2.80;99.90;;;;;;5005092;28;20094;-72
2021/12/08 09:21:58;;;;;;;23.55;13.18;;;2.80;99.90;;;;;;5037694;28;20043;-70
2021/12/08 09:25:12;;;;;;;18.55;11.30;;;2.80;99.90;;;;;;5038536;28;20190;-71
2021/12/08 09:28:05;;;;;;;19.48;11.90;;;2.80;99.90;;;;;;5020342;28;20098;-69
2021/12/08 09:30:58;;;;;;;17.98;12.05;;;2.80;99.90;;;;;;5015667;28;20055;-72
2021/12/08 09:33:51;;;;;;;20.35;12.20;;;2.90;99.90;;;;;;5032992;28;20187;-69
2021/12/08 09:36:45;;;;;;;16.95;10.25;;;2.90;99.90;;;;;;5016459;28;20618;-69
2021/12/08 09:39:37;;;;;;;17.90;12.88;;;2.80;99.90;;;;;;5034300;28;20111;-69
2021/12/08 09:42:31;;;;;;;18.63;12.07;;;2.80;99.90;;;;;;5002761;28;20463;-70
2021/12/08 09:45:31;;;;;;;16.08;10.68;;;2.90;99.90;;;;;;5003356;28;20258;-71
2021/12/08 09:48:18;;;;;;;16.80;11.68;;;2.90;99.90;;;;;;5002949;28;20056;-71
2021/12/08 09:51:03;;;;;;;20.60;12.13;;;3.00;99.90;;;;;;5016960;28;20056;-71
2021/12/08 09:53:49;;;;;;;15.75;11.18;;;3.00;99.90;;;;;;5004079;28;20168;-72
2021/12/08 09:56:36;;;;;;;20.58;11.73;;;3.10;99.90;;;;;;5036135;28;20109;-71
2021/12/08 09:59:23;;;;;;;18.08;10.82;;;3.10;99.90;;;;;;5007695;28;20082;-69
2021/12/08 10:02:09;;;;;;;15.82;10.73;;;3.10;99.90;;;;;;5008661;28;20142;-71
2021/12/08 10:05:01;;;;;;;12.93;9.68;;;3.10;99.90;;;;;;5019593;28;20065;-70
2021/12/08 10:07:48;;;;;;;13.23;9.05;;;3.10;99.90;;;;;;5027763;28;20094;-70
2021/12/08 10:10:34;;;;;;;17.92;12.23;;;3.00;99.90;;;;;;5018264;28;20052;-71
2021/12/08 10:13:20;;;;;;;18.75;11.38;;;3.10;99.90;;;;;;5020490;28;20055;-71
2021/12/08 10:16:07;;;;;;;18.05;10.68;;;3.20;99.90;;;;;;5036752;28;20064;-71
2021/12/08 10:18:55;;;;;;;19.98;11.85;;;3.20;99.90;;;;;;5023100;28;20158;-72
2021/12/08 10:21:41;;;;;;;14.43;8.10;;;3.20;99.90;;;;;;5037532;28;20547;-70
2021/12/08 10:24:29;;;;;;;16.15;9.55;;;3.30;99.90;;;;;;5021096;28;20044;-69
2021/12/08 10:27:14;;;;;;;13.10;9.35;;;3.20;99.90;;;;;;5032386;28;20061;-71
2021/12/08 10:30:23;;;;;;;15.23;8.80;;;3.30;99.90;;;;;;5014643;28;20130;-71
2021/12/08 10:37:14;;;;;;;15.82;9.40;;;3.40;99.90;;;;;;4988412;28;20202;-71
2021/12/08 10:40:07;;;;;;;;;;;3.40;99.90;;;;;;5010836;28;20060;-71
2021/12/08 10:42:52;;;;;;;14.70;8.73;;;3.40;99.90;;;;;;5024465;28;20435;-69
2021/12/08 10:45:37;;;;;;;;;;;3.40;99.90;;;;;;5009305;28;20052;-70
2021/12/08 10:48:33;;;;;;;17.98;9.70;;;3.40;99.90;;;;;;5009265;28;20199;-69
2021/12/08 10:54:30;;;;;;;13.60;9.13;;;3.40;99.90;;;;;;5035383;28;20623;-70
2021/12/08 10:57:34;;;;;;;14.60;8.60;;;3.40;99.90;;;;;;5007474;28;20048;-71
2021/12/08 11:00:33;;;;;;;11.73;7.80;;;3.40;99.90;;;;;;5016621;28;20064;-70
2021/12/08 11:03:22;;;;;;;13.15;8.20;;;3.50;99.90;;;;;;5015956;28;20149;-71
2021/12/08 11:06:09;;;;;;;15.43;10.30;;;3.50;99.90;;;;;;5009447;28;20078;-70
2021/12/08 11:08:56;;;;;;;18.00;8.65;;;3.60;99.90;;;;;;5028005;28;20428;-69
2021/12/08 11:11:43;;;;;;;17.75;10.02;;;3.70;99.90;;;;;;5002067;28;20056;-71
2021/12/08 11:14:45;;;;;;;17.00;9.60;;;3.80;99.90;;;;;;5005691;28;20107;-71
2021/12/08 11:17:32;;;;;;;16.85;9.65;;;3.80;99.90;;;;;;5018110;28;20052;-73
2021/12/08 11:20:23;;;;;;;14.32;8.45;;;3.80;99.90;;;;;;5006634;28;20116;-73
2021/12/08 11:23:10;;;;;;;16.23;9.85;;;3.70;99.90;;;;;;5016220;28;20060;-73
2021/12/08 11:25:57;;;;;;;12.68;8.75;;;3.70;99.90;;;;;;5015564;28;20060;-73
2021/12/08 11:29:13;;;;;;;14.70;10.27;;;3.80;99.90;;;;;;5010957;28;20122;-73
2021/12/08 11:32:06;;;;;;;15.25;9.90;;;3.80;99.90;;;;;;5006327;28;20107;-74
2021/12/08 11:34:53;;;;;;;14.55;9.65;;;3.80;99.90;;;;;;5005795;28;20072;-74
2021/12/08 11:37:39;;;;;;;16.90;9.73;;;3.90;99.90;;;;;;5018942;28;20813;-72
2021/12/08 11:40:25;;;;;;;13.82;7.95;;;3.80;99.90;;;;;;5021186;28;20532;-73
2021/12/08 11:43:14;;;;;;;20.55;10.57;;;3.80;99.90;;;;;;5029643;28;20062;-74
2021/12/08 11:46:14;;;;;;;20.42;10.77;;;3.80;99.90;;;;;;5015739;28;20271;-73
2021/12/08 11:49:04;;;;;;;16.38;9.20;;;3.80;99.90;;;;;;5051306;28;20546;-73
2021/12/08 11:51:56;;;;;;;15.30;9.95;;;3.70;99.90;;;;;;5003977;28;20056;-73
2021/12/08 11:55:00;;;;;;;17.35;9.98;;;3.70;99.90;;;;;;5019948;28;20142;-71
2021/12/08 11:57:51;;;;;;;18.85;9.43;;;3.80;99.90;;;;;;5031678;28;20063;-73
2021/12/08 12:00:40;;;;;;;16.75;9.63;;;3.90;99.90;;;;;;5017646;28;20064;-74
2021/12/08 12:03:26;;;;;;;15.02;9.75;;;3.80;99.90;;;;;;5019094;28;20049;-74
2021/12/08 12:06:11;;;;;;;23.88;13.90;;;3.80;99.90;;;;;;5026558;28;20051;-73
2021/12/08 12:08:59;;;;;;;18.25;11.20;;;3.80;99.90;;;;;;5028744;28;20648;-73
2021/12/08 12:12:05;;;;;;;19.42;11.90;;;3.90;99.90;;;;;;5017255;28;20052;-72
2021/12/08 12:14:51;;;;;;;14.88;10.05;;;3.80;99.90;;;;;;5031551;28;20077;-74
2021/12/08 12:17:37;;;;;;;18.27;11.38;;;3.80;99.90;;;;;;5035428;28;20123;-73
2021/12/08 12:20:25;;;;;;;16.20;10.85;;;3.90;99.90;;;;;;5033225;28;20059;-74
2021/12/08 12:23:46;;;;;;;18.98;11.65;;;3.90;99.90;;;;;;5032967;28;20118;-73
2021/12/08 12:26:45;;;;;;;20.25;11.23;;;4.00;99.90;;;;;;5026956;28;20075;-74
2021/12/08 12:29:49;;;;;;;18.33;12.02;;;4.00;99.90;;;;;;5017426;28;20048;-73
2021/12/08 12:32:47;;;;;;;18.45;11.50;;;4.00;99.90;;;;;;5022143;28;20222;-73
2021/12/08 12:35:33;;;;;;;19.02;12.20;;;4.00;99.90;;;;;;5025319;28;20716;-72
2021/12/08 12:38:36;;;;;;;19.02;11.48;;;4.00;99.90;;;;;;5017949;28;20104;-74
2021/12/08 12:41:30;;;;;;;21.83;11.40;;;4.00;99.90;;;;;;5004293;28;20131;-73
2021/12/08 12:44:21;;;;;;;;;;;4.00;99.90;;;;;;5009488;28;20063;-71
2021/12/08 12:47:13;;;;;;;16.95;12.20;;;4.00;99.90;;;;;;5023836;28;19980;-72
2021/12/08 12:50:21;;;;;;;24.98;14.38;;;4.00;99.90;;;;;;5013046;28;20228;-71
2021/12/08 12:53:06;;;;;;;20.27;11.95;;;4.10;99.90;;;;;;5006531;28;20079;-73
2021/12/08 12:55:52;;;;;;;26.80;12.82;;;4.10;99.90;;;;;;5020546;28;20254;-72
2021/12/08 12:58:52;;;;;;;24.30;15.65;;;4.20;99.90;;;;;;5021104;28;20065;-73
2021/12/08 13:01:44;;;;;;;20.30;10.80;;;4.30;99.90;;;;;;5020556;28;20110;-71
2021/12/08 13:04:32;;;;;;;19.08;11.93;;;4.20;99.90;;;;;;5023475;28;20429;-72
2021/12/08 13:07:18;;;;;;;20.27;12.32;;;4.20;99.90;;;;;;5034323;28;20060;-73
2021/12/08 13:10:10;;;;;;;20.33;11.32;;;4.20;99.90;;;;;;5023687;28;20109;-72
2021/12/08 13:13:14;;;;;;;18.50;11.98;;;4.30;99.90;;;;;;5032201;28;20047;-73
2021/12/08 13:15:59;;;;;;;18.33;11.02;;;4.30;99.90;;;;;;5020592;28;20060;-73
2021/12/08 13:18:55;;;;;;;14.77;9.90;;;4.40;99.90;;;;;;5022119;28;20073;-72
2021/12/08 13:21:42;;;;;;;;;;;4.20;99.90;;;;;;5003457;28;20045;-72
2021/12/08 13:24:36;;;;;;;17.70;9.80;;;4.20;99.90;;;;;;5030232;28;20444;-72
2021/12/08 13:27:28;;;;;;;19.73;10.33;;;4.10;99.90;;;;;;5008055;28;20091;-71
2021/12/08 13:30:17;;;;;;;23.13;10.35;;;4.10;99.90;;;;;;5002193;28;20052;-72
2021/12/08 13:33:09;;;;;;;16.20;9.00;;;4.20;99.90;;;;;;5007350;28;20564;-73
2021/12/08 13:35:55;;;;;;;15.60;10.10;;;4.20;99.90;;;;;;5016371;28;20589;-74
2021/12/08 13:38:43;;;;;;;19.52;10.63;;;4.20;99.90;;;;;;5035638;28;20751;-72
2021/12/08 13:41:31;;;;;;;21.98;11.93;;;4.30;99.90;;;;;;5015094;28;20172;-72
2021/12/08 13:44:22;;;;;;;19.50;10.63;;;4.30;99.90;;;;;;5017686;28;20060;-71
2021/12/08 13:47:22;;;;;;;19.98;13.02;;;4.20;99.90;;;;;;5015523;28;20043;-72
2021/12/08 13:50:20;;;;;;;16.42;10.07;;;4.30;99.90;;;;;;5025290;28;20060;-72
2021/12/08 13:53:15;;;;;;;16.38;9.77;;;4.40;99.90;;;;;;5011122;28;20064;-71
2021/12/08 13:56:01;;;;;;;14.70;10.70;;;4.30;99.90;;;;;;5020582;28;20055;-72
2021/12/08 13:58:47;;;;;;;22.27;9.95;;;4.20;99.90;;;;;;5031169;28;20766;-72
2021/12/08 14:01:37;;;;;;;19.40;11.25;;;4.20;99.90;;;;;;5017135;28;20659;-72
2021/12/08 14:04:24;;;;;;;16.77;11.10;;;4.20;99.90;;;;;;5016500;28;20142;-71
2021/12/08 14:07:18;;;;;;;18.50;10.00;;;4.20;99.90;;;;;;5016512;28;20056;-72
2021/12/08 14:10:08;;;;;;;16.30;10.65;;;4.20;99.90;;;;;;5022667;28;20150;-71
2021/12/08 14:12:53;;;;;;;20.30;10.25;;;4.20;99.90;;;;;;5021831;28;20125;-72
2021/12/08 14:15:49;;;;;;;15.25;9.38;;;4.30;99.90;;;;;;5034258;28;20090;-70
2021/12/08 14:18:37;;;;;;;20.23;9.40;;;4.20;99.90;;;;;;5021160;28;20520;-72
2021/12/08 14:21:34;;;;;;;19.75;10.25;;;4.20;99.90;;;;;;5001964;28;20048;-72
2021/12/08 14:24:40;;;;;;;18.60;11.18;;;4.20;99.90;;;;;;5019590;28;21347;-71
2021/12/08 14:27:31;;;;;;;16.77;9.20;;;4.10;99.90;;;;;;5034486;28;20147;-72
2021/12/08 14:30:21;;;;;;;18.23;10.43;;;4.10;99.90;;;;;;5028699;28;20519;-73
2021/12/08 14:33:06;;;;;;;15.98;9.20;;;4.10;99.90;;;;;;5019898;28;20187;-72
2021/12/08 14:35:58;;;;;;;17.70;9.80;;;4.00;99.90;;;;;;5026386;28;20449;-73
2021/12/08 14:38:55;;;;;;;15.02;9.10;;;4.00;99.90;;;;;;5017892;28;20183;-71
2021/12/08 14:41:41;;;;;;;25.27;12.45;;;4.00;99.90;;;;;;5008860;28;20133;-72
2021/12/08 14:44:38;;;;;;;21.85;9.80;;;4.00;99.90;;;;;;5002575;28;20536;-72
2021/12/08 14:47:35;;;;;;;15.60;10.18;;;4.00;99.90;;;;;;5029896;28;20122;-73
2021/12/08 14:50:24;;;;;;;22.77;11.32;;;4.00;99.90;;;;;;5021331;28;20055;-73
2021/12/08 14:53:14;;;;;;;21.88;9.18;;;4.00;99.90;;;;;;5002665;28;20180;-72
2021/12/08 14:56:12;;;;;;;16.67;10.52;;;3.90;99.90;;;;;;5041471;22;20107;-71
2021/12/08 14:58:58;;;;;;;15.48;9.73;;;3.80;99.90;;;;;;5013256;28;20060;-71
2021/12/08 15:01:45;;;;;;;19.13;9.50;;;3.80;99.90;;;;;;5032604;28;20095;-70
2021/12/08 15:04:31;;;;;;;19.92;10.00;;;3.70;99.90;;;;;;5026186;28;20060;-70
2021/12/08 15:07:22;;;;;;;21.48;11.95;;;3.60;99.90;;;;;;4998105;28;20606;-72
2021/12/08 15:10:12;;;;;;;18.85;11.02;;;3.60;99.90;;;;;;4999719;28;20157;-72
2021/12/08 15:13:23;;;;;;;24.67;14.07;;;3.50;99.90;;;;;;4999828;28;20045;-71
2021/12/08 15:16:13;;;;;;;32.47;16.38;;;3.50;99.90;;;;;;4999653;28;20052;-71
2021/12/08 15:19:11;;;;;;;25.75;13.23;;;3.40;99.90;;;;;;5012720;28;20317;-72
2021/12/08 15:22:09;;;;;;;28.60;15.07;;;3.40;99.90;;;;;;4998134;28;20041;-71
2021/12/08 15:25:21;;;;;;;30.30;16.63;;;3.40;99.90;;;;;;4999621;28;20518;-72
2021/12/08 15:28:09;;;;;;;33.65;17.35;;;3.30;99.90;;;;;;4996474;28;20602;-71
2021/12/08 15:30:56;;;;;;;36.30;18.08;;;3.30;99.90;;;;;;4999095;28;20176;-72
2021/12/08 15:33:48;;;;;;;33.03;17.70;;;3.10;99.90;;;;;;4998056;28;20548;-71
2021/12/08 15:36:35;;;;;;;23.88;14.38;;;3.10;99.90;;;;;;4996229;28;20060;-71
2021/12/08 15:39:23;;;;;;;21.35;12.93;;;3.00;99.90;;;;;;4993984;28;20505;-70
2021/12/08 15:42:11;;;;;;;23.05;12.40;;;2.90;99.90;;;;;;4997838;28;20368;-71
2021/12/08 15:45:00;;;;;;;23.15;13.02;;;2.90;99.90;;;;;;4998798;28;20045;-72
2021/12/08 15:47:45;;;;;;;28.98;14.32;;;2.80;99.90;;;;;;4997627;28;20389;-74
2021/12/08 15:50:37;;;;;;;20.48;13.13;;;2.70;99.90;;;;;;4995838;28;20068;-74